createdAt,value
2018-01-19T00:04:47.245Z,79.10
2018-01-19T00:10:15.439Z,79.20
2018-01-19T00:15:44.403Z,79.30
2018-01-19T00:21:19.707Z,79.30
2018-01-19T00:26:47.889Z,79.30
2018-01-19T00:32:16.864Z,79.40
2018-01-19T00:37:45.096Z,79.40
2018-01-19T00:43:13.302Z,79.20
2018-01-19T00:48:41.506Z,79.20
2018-01-19T00:54:10.475Z,79.30
2018-01-19T00:59:38.725Z,79.30
2018-01-19T01:05:06.921Z,79.30
2018-01-19T01:10:35.110Z,79.50
2018-01-19T01:16:04.511Z,79.50
2018-01-19T01:21:32.725Z,79.60
2018-01-19T01:27:01.158Z,79.60
2018-01-19T01:32:29.341Z,79.60
2018-01-19T01:37:57.521Z,79.70
2018-01-19T01:43:26.724Z,80.20
2018-01-19T01:49:11.983Z,80.20
2018-01-19T01:54:40.161Z,80.30
2018-01-19T02:00:08.490Z,80.50
2018-01-19T02:05:36.717Z,80.50
2018-01-19T02:11:05.226Z,80.70
2018-01-19T02:16:34.490Z,80.70
2018-01-19T02:22:02.742Z,80.70
2018-01-19T02:27:30.937Z,80.80
2018-01-19T02:32:59.121Z,81.60
2018-01-19T02:38:27.312Z,80.90
2018-01-19T02:43:56.461Z,80.90
2018-01-19T02:49:28.609Z,81.00
2018-01-19T02:54:56.788Z,81.00
2018-01-19T03:00:25.744Z,81.30
2018-01-19T03:06:07.150Z,81.00
2018-01-19T03:11:36.143Z,81.30
2018-01-19T03:17:04.368Z,81.30
2018-01-19T03:22:32.635Z,81.50
2018-01-19T03:28:01.584Z,81.50
2018-01-19T03:33:30.545Z,81.40
2018-01-19T03:39:00.987Z,81.40
2018-01-19T03:44:29.272Z,81.40
2018-01-19T03:49:58.392Z,81.40
2018-01-19T03:55:26.731Z,81.30
2018-01-19T04:00:54.927Z,81.30
2018-01-19T04:06:23.144Z,81.40
2018-01-19T04:12:17.043Z,81.50
2018-01-19T04:17:45.256Z,81.60
2018-01-19T04:23:14.227Z,82.10
2018-01-19T04:28:42.401Z,82.10
2018-01-19T04:34:10.619Z,82.20
2018-01-19T04:39:43.016Z,82.20
2018-01-19T04:45:12.048Z,82.50
2018-01-19T04:50:46.933Z,82.60
2018-01-19T04:56:15.350Z,82.60
2018-01-19T05:01:43.521Z,82.70
2018-01-19T05:07:11.913Z,82.80
2018-01-19T05:12:54.508Z,82.60
2018-01-19T05:18:22.693Z,82.50
2018-01-19T05:23:53.581Z,82.20
2018-01-19T05:29:22.628Z,82.20
2018-01-19T05:34:51.255Z,82.10
2018-01-19T05:40:19.560Z,82.10
2018-01-19T05:45:47.753Z,81.90
2018-01-19T05:51:16.715Z,81.90
2018-01-19T05:56:52.088Z,81.80
2018-01-19T06:02:21.067Z,81.90
2018-01-19T06:07:49.263Z,81.80
2018-01-19T06:13:17.466Z,81.80
2018-01-19T06:18:46.417Z,81.70
2018-01-19T06:24:15.393Z,81.70
2018-01-19T06:29:43.578Z,81.60
2018-01-19T06:35:12.517Z,81.40
2018-01-19T06:40:41.493Z,81.30
2018-01-19T06:46:09.776Z,81.30
2018-01-19T06:51:38.801Z,81.20
2018-01-19T06:57:07.829Z,81.00
2018-01-19T07:02:37.571Z,80.90
2018-01-19T07:08:05.780Z,80.90
2018-01-19T07:13:34.025Z,80.80
2018-01-19T07:19:02.821Z,80.70
2018-01-19T07:24:31.060Z,80.60
2018-01-19T07:29:59.239Z,80.40
2018-01-19T07:35:27.431Z,80.20
2018-01-19T07:40:55.621Z,80.00
2018-01-19T07:46:23.823Z,79.60
2018-01-19T07:51:52.031Z,79.20
2018-01-19T07:57:20.213Z,78.30
2018-01-19T08:02:48.439Z,77.60
2018-01-19T08:08:16.647Z,76.90
2018-01-19T08:13:44.887Z,76.50
2018-01-19T08:19:13.133Z,75.90
2018-01-19T08:24:41.342Z,75.40
2018-01-19T08:30:10.323Z,74.80
2018-01-19T08:35:38.530Z,74.80
2018-01-19T08:41:17.313Z,74.50
2018-01-19T08:46:45.506Z,74.50
2018-01-19T08:52:13.714Z,72.90
2018-01-19T08:57:42.672Z,73.20
2018-01-19T09:03:10.854Z,73.10
2018-01-19T09:08:39.050Z,73.20
2018-01-19T09:14:07.253Z,72.10
2018-01-19T09:19:35.535Z,70.90
2018-01-19T09:25:04.528Z,70.40
2018-01-19T09:30:33.048Z,70.30
2018-01-19T09:36:01.267Z,69.30
2018-01-19T09:41:29.491Z,69.60
2018-01-19T09:46:57.673Z,69.40
2018-01-19T09:52:25.884Z,69.30
2018-01-19T09:57:54.866Z,68.10
2018-01-19T10:03:23.045Z,68.10
2018-01-19T10:08:52.016Z,66.70
2018-01-19T10:14:20.222Z,66.50
2018-01-19T10:19:48.407Z,66.10
2018-01-19T10:25:16.591Z,66.30
2018-01-19T10:30:48.233Z,64.70
2018-01-19T10:36:16.403Z,64.60
2018-01-19T10:41:44.615Z,63.70
2018-01-19T10:47:12.801Z,62.50
2018-01-19T10:52:41.771Z,63.30
2018-01-19T10:58:09.945Z,63.30
2018-01-19T11:03:38.151Z,63.00
2018-01-19T11:09:06.378Z,62.90
2018-01-19T11:14:35.413Z,62.40
2018-01-19T11:20:03.673Z,62.00
2018-01-19T11:25:31.867Z,62.60
2018-01-19T11:31:00.173Z,62.20
2018-01-19T11:36:28.400Z,62.20
2018-01-19T11:41:56.624Z,61.50
2018-01-19T11:47:24.819Z,61.40
2018-01-19T11:52:53.052Z,59.80
2018-01-19T11:58:21.553Z,59.20
2018-01-19T12:03:49.735Z,57.90
2018-01-19T12:09:17.929Z,57.40
2018-01-19T12:14:46.334Z,57.80
2018-01-19T12:20:14.549Z,56.50
2018-01-19T12:25:43.523Z,56.60
2018-01-19T12:31:11.731Z,56.60
2018-01-19T12:36:40.617Z,56.00
2018-01-19T12:42:09.600Z,55.90
2018-01-19T12:47:37.793Z,55.90
2018-01-19T12:53:06.011Z,56.00
2018-01-19T12:58:34.260Z,56.00
2018-01-19T13:04:02.478Z,56.50
2018-01-19T13:09:30.748Z,56.80
2018-01-19T13:14:59.701Z,56.90
2018-01-19T13:20:35.775Z,56.20
2018-01-19T13:26:04.011Z,56.20
2018-01-19T13:31:32.206Z,55.50
2018-01-19T13:37:00.439Z,55.20
2018-01-19T13:42:28.649Z,55.30
2018-01-19T13:47:56.846Z,54.50
2018-01-19T13:53:25.057Z,53.00
2018-01-19T13:58:53.278Z,51.70
2018-01-19T14:04:21.484Z,51.20
2018-01-19T14:09:49.692Z,49.50
2018-01-19T14:15:18.641Z,48.50
2018-01-19T14:20:46.851Z,48.50
2018-01-19T14:26:15.799Z,47.20
2018-01-19T14:31:43.993Z,47.10
2018-01-19T14:37:12.169Z,46.10
2018-01-19T14:42:40.410Z,45.80
2018-01-19T14:48:08.649Z,45.50
2018-01-19T14:53:36.844Z,46.70
2018-01-19T14:59:05.110Z,47.60
2018-01-19T15:04:34.374Z,48.20
2018-01-19T15:10:02.565Z,50.10
2018-01-19T15:15:30.791Z,50.50
2018-01-19T15:20:58.982Z,51.60
2018-01-19T15:26:27.228Z,52.80
2018-01-19T15:31:55.431Z,54.20
2018-01-19T15:37:23.632Z,55.70
2018-01-19T15:42:51.825Z,56.90
2018-01-19T15:48:20.760Z,59.40
2018-01-19T15:53:49.708Z,59.80
2018-01-19T15:59:17.910Z,59.80
2018-01-19T16:04:46.916Z,61.40
2018-01-19T16:10:17.701Z,61.30
2018-01-19T16:15:46.981Z,61.90
2018-01-19T16:21:16.584Z,63.00
2018-01-19T16:26:44.991Z,62.90
2018-01-19T16:32:14.143Z,63.50
2018-01-19T16:37:42.370Z,63.80
2018-01-19T16:43:10.592Z,64.60
2018-01-19T16:48:39.732Z,64.70
2018-01-19T16:54:07.931Z,65.00
2018-01-19T16:59:36.141Z,65.30
2018-01-19T17:05:04.473Z,65.60
2018-01-19T17:10:32.695Z,65.70
2018-01-19T17:16:02.821Z,65.80
2018-01-19T17:21:31.136Z,66.20
2018-01-19T17:26:59.330Z,66.50
2018-01-19T17:32:27.715Z,66.70
2018-01-19T17:37:56.872Z,66.90
2018-01-19T17:43:25.061Z,67.20
2018-01-19T17:48:55.681Z,67.30
2018-01-19T17:54:23.878Z,67.20
2018-01-19T17:59:56.948Z,67.10
2018-01-19T18:05:27.123Z,67.10
2018-01-19T18:10:55.323Z,67.20
2018-01-19T18:16:23.513Z,67.50
2018-01-19T18:21:51.694Z,67.70
2018-01-19T18:27:19.872Z,67.90
2018-01-19T18:32:48.166Z,68.00
2018-01-19T18:38:16.427Z,67.80
2018-01-19T18:43:50.535Z,68.10
2018-01-19T18:49:19.540Z,68.10
2018-01-19T18:54:48.756Z,68.10
2018-01-19T19:00:17.012Z,68.40
2018-01-19T19:05:46.257Z,68.40
2018-01-19T19:11:14.455Z,68.60
2018-01-19T19:16:43.941Z,68.70
2018-01-19T19:22:13.595Z,68.70
2018-01-19T19:27:42.786Z,68.90
2018-01-19T19:33:11.154Z,69.00
2018-01-19T19:38:41.415Z,69.00
2018-01-19T19:44:09.629Z,69.10
2018-01-19T19:49:39.954Z,69.10
2018-01-19T19:55:08.179Z,69.30
2018-01-19T20:00:44.464Z,68.80
2018-01-19T20:06:18.802Z,69.30
2018-01-19T20:11:48.217Z,69.40
2018-01-19T20:17:17.268Z,69.50
2018-01-19T20:23:04.393Z,69.50
2018-01-19T20:28:34.708Z,69.60
2018-01-19T20:34:05.468Z,69.60
2018-01-19T20:39:34.428Z,69.60
2018-01-19T20:45:02.709Z,69.60
2018-01-19T20:50:32.245Z,69.90
2018-01-19T20:56:06.187Z,70.00
2018-01-19T21:01:34.601Z,70.00
2018-01-19T21:07:02.796Z,70.10
2018-01-19T21:12:38.512Z,70.20
2018-01-19T21:18:09.768Z,70.30
2018-01-19T21:23:38.751Z,70.50
2018-01-19T21:29:07.970Z,70.40
2018-01-19T21:34:43.073Z,70.60
2018-01-19T21:40:11.594Z,70.70
2018-01-19T21:45:54.872Z,70.80
2018-01-19T21:51:31.090Z,71.90
2018-01-19T21:57:00.097Z,71.50
2018-01-19T22:02:29.228Z,71.60
2018-01-19T22:07:59.917Z,71.60
2018-01-19T22:13:29.878Z,72.50
2018-01-19T22:18:58.188Z,72.50
2018-01-19T22:24:26.379Z,72.80
2018-01-19T22:29:54.595Z,73.10
2018-01-19T22:35:22.785Z,73.80
2018-01-19T22:40:50.966Z,73.90
2018-01-19T22:46:19.169Z,74.20
2018-01-19T22:51:55.107Z,74.50
2018-01-19T22:57:24.085Z,75.20
2018-01-19T23:02:52.296Z,75.20
2018-01-19T23:08:21.715Z,75.80
2018-01-19T23:13:49.929Z,76.30
2018-01-19T23:19:18.117Z,79.60
2018-01-19T23:24:46.337Z,78.10
2018-01-19T23:30:15.498Z,77.70
2018-01-19T23:35:48.792Z,77.80
2018-01-19T23:41:17.210Z,77.80
2018-01-19T23:46:45.412Z,78.00
2018-01-19T23:52:14.379Z,78.00
2018-01-19T23:57:42.576Z,78.00
